Terminal Aerodrome Forecast
Issued by NWS

Home | Current Version | Previous Version | Text Only | Print | Product List | Glossary On
Versions: 1 2 3 4 5 6 7 8 9 10 11 12
000
FTUS44 KEPZ 290500
TAFDMN
TAF
KDMN 290529Z 2906/3006 28008KT P6SM SKC
     FM292100 27012G22KT P6SM FEW110 SCT250
     FM300200 30007KT P6SM FEW110 BKN250=

USA.gov is the U.S. government's official web portal to all federal, state and local government web resources and services.